Latest Aviation Weather Report (METAR)

METAR VMMC 180030Z 36005KT 7000 NSC 23/21 Q1016 NOSIG=

Decoded METAR in plain language
Contents of Report Code Information
Report Type METAR Aviation Routine Weather Report
Location VMMC Macao, China
Time of the Observation 180030Z 18/11/2019 00:30:00 UTC
Surface Wind Direction and Speed 36005KT mean direction 360 degrees, speed 5 knots
Visibility 7000 7 kilometres
Present Weather    
Cloud NSC no significant cloud
Air Temperature and Dew-Point Temperature 23/21 air temperature 23°C
dew point temperature 21°C
Pressure (QNH) Q1016 1016 hPa
Trend Forecasts During Next Two Hours NOSIG no significant changes

OTHER INTERNATIONAL AIRPORTS:
Weather Forecast (TAF)   Weather Report (METAR)